Time,TemperatureF,DewpointF,PressureIn,WindDirection,WindDirectionDegrees,WindSpeedMPH,WindSpeedGustMPH,Humidity,HourlyPrecipIn,Conditions,Clouds,dailyrainin,SoftwareType,DateUTC
2013-02-19 00:02:00,23.0,2.0,30.11,SSW,192,0.0,1.0,39,-99.99,,,-99.99,,2013-02-19 05:02:00,
2013-02-19 00:12:00,23.0,2.0,30.11,SSW,192,0.0,1.0,39,-99.99,,,-99.99,,2013-02-19 05:12:00,
2013-02-19 00:22:00,23.0,2.0,30.12,SSW,192,0.0,2.0,40,-99.99,,,-99.99,,2013-02-19 05:22:00,
2013-02-19 00:32:00,22.0,2.0,30.12,SSW,192,0.0,3.0,42,-99.99,,,-99.99,,2013-02-19 05:32:00,
2013-02-19 00:43:00,22.0,2.0,30.12,SSW,192,0.0,3.0,42,-99.99,,,-99.99,,2013-02-19 05:43:00,
2013-02-19 00:52:00,22.0,3.0,30.12,SSW,192,0.0,2.0,43,-99.99,,,-99.99,,2013-02-19 05:52:00,
2013-02-19 01:02:00,21.0,3.0,30.12,SSW,192,0.0,2.0,44,-99.99,,,-99.99,,2013-02-19 06:02:00,
2013-02-19 01:12:00,21.0,3.0,30.12,SSW,192,0.0,2.0,44,-99.99,,,-99.99,,2013-02-19 06:12:00,
2013-02-19 01:22:00,21.0,4.0,30.12,SSW,192,0.0,2.0,46,-99.99,,,-99.99,,2013-02-19 06:22:00,
2013-02-19 01:32:00,21.0,4.0,30.12,SSW,192,0.0,2.0,46,-99.99,,,-99.99,,2013-02-19 06:32:00,
2013-02-19 01:42:00,21.0,4.0,30.12,SSW,192,0.0,2.0,46,-99.99,,,-99.99,,2013-02-19 06:42:00,
2013-02-19 01:52:00,21.0,4.0,30.13,West,259,0.0,4.0,48,-99.99,,,-99.99,,2013-02-19 06:52:00,
2013-02-19 02:01:00,21.0,4.0,30.13,West,259,0.0,4.0,48,-99.99,,,-99.99,,2013-02-19 07:01:00,
2013-02-19 02:11:00,21.0,4.0,30.13,West,259,0.0,4.0,48,-99.99,,,-99.99,,2013-02-19 07:11:00,
2013-02-19 02:22:00,21.0,4.0,30.13,WSW,258,0.0,0.0,47,-99.99,,,-99.99,,2013-02-19 07:22:00,
2013-02-19 02:32:00,22.0,5.0,30.13,WSW,257,0.0,1.0,48,-99.99,,,-99.99,,2013-02-19 07:32:00,
2013-02-19 02:42:00,22.0,5.0,30.13,WSW,257,0.0,1.0,48,-99.99,,,-99.99,,2013-02-19 07:42:00,
2013-02-19 02:52:00,21.0,5.0,30.13,WSW,257,0.0,0.0,49,-99.99,,,-99.99,,2013-02-19 07:52:00,
2013-02-19 03:02:00,21.0,4.0,30.14,WSW,244,0.0,3.0,48,-99.99,,,-99.99,,2013-02-19 08:02:00,
2013-02-19 03:11:00,21.0,4.0,30.14,WSW,244,0.0,3.0,48,-99.99,,,-99.99,,2013-02-19 08:11:00,
2013-02-19 03:21:00,21.0,4.0,30.14,WSW,244,0.0,3.0,48,-99.99,,,-99.99,,2013-02-19 08:21:00,
2013-02-19 03:32:00,22.0,5.0,30.13,West,274,1.0,6.0,48,-99.99,,,-99.99,,2013-02-19 08:32:00,
2013-02-19 03:42:00,22.0,5.0,30.13,West,274,1.0,6.0,48,-99.99,,,-99.99,,2013-02-19 08:42:00,
2013-02-19 03:52:00,23.0,5.0,30.14,West,273,2.0,4.0,46,-99.99,,,-99.99,,2013-02-19 08:52:00,
2013-02-19 04:02:00,23.0,6.0,30.14,West,273,2.0,4.0,47,-99.99,,,-99.99,,2013-02-19 09:02:00,
2013-02-19 04:11:00,23.0,6.0,30.14,West,273,2.0,4.0,47,-99.99,,,-99.99,,2013-02-19 09:11:00,
2013-02-19 04:22:00,23.0,5.0,30.14,West,271,3.0,5.0,46,-99.99,,,-99.99,,2013-02-19 09:22:00,
2013-02-19 04:32:00,23.0,5.0,30.14,West,271,3.0,5.0,46,-99.99,,,-99.99,,2013-02-19 09:32:00,
2013-02-19 04:42:00,23.0,5.0,30.14,West,271,3.0,5.0,46,-99.99,,,-99.99,,2013-02-19 09:42:00,
2013-02-19 04:52:00,23.0,5.0,30.14,NW,324,1.0,3.0,46,-99.99,,,-99.99,,2013-02-19 09:52:00,
2013-02-19 05:02:00,23.0,6.0,30.13,NW,324,0.0,4.0,47,-99.99,,,-99.99,,2013-02-19 10:02:00,
2013-02-19 05:11:00,23.0,6.0,30.13,NW,324,0.0,4.0,47,-99.99,,,-99.99,,2013-02-19 10:11:00,
2013-02-19 05:22:00,23.0,6.0,30.12,NW,324,0.0,0.0,47,-99.99,,,-99.99,,2013-02-19 10:22:00,
2013-02-19 05:32:00,22.0,5.0,30.12,NW,324,0.0,0.0,48,-99.99,,,-99.99,,2013-02-19 10:32:00,
2013-02-19 05:42:00,22.0,5.0,30.12,NW,324,0.0,0.0,48,-99.99,,,-99.99,,2013-02-19 10:42:00,
2013-02-19 05:52:00,21.0,7.0,30.11,NW,324,0.0,0.0,53,-99.99,,,-99.99,,2013-02-19 10:52:00,
2013-02-19 06:01:00,21.0,5.0,30.10,NW,324,0.0,0.0,50,-99.99,,,-99.99,,2013-02-19 11:01:00,
2013-02-19 06:11:00,21.0,6.0,30.09,NW,324,0.0,0.0,52,-99.99,,,-99.99,,2013-02-19 11:11:00,
2013-02-19 06:22:00,21.0,6.0,30.09,NW,324,0.0,0.0,52,-99.99,,,-99.99,,2013-02-19 11:22:00,
2013-02-19 06:32:00,21.0,6.0,30.09,NW,324,0.0,0.0,52,-99.99,,,-99.99,,2013-02-19 11:32:00,
2013-02-19 06:42:00,21.0,6.0,30.09,NW,324,0.0,0.0,52,-99.99,,,-99.99,,2013-02-19 11:42:00,
2013-02-19 06:52:00,20.0,8.0,30.11,SE,142,1.0,4.0,58,-99.99,,,-99.99,,2013-02-19 11:52:00,
2013-02-19 07:02:00,21.0,7.0,30.11,SSE,168,1.0,4.0,54,-99.99,,,-99.99,,2013-02-19 12:02:00,
2013-02-19 07:12:00,21.0,7.0,30.11,SSE,168,1.0,4.0,54,-99.99,,,-99.99,,2013-02-19 12:12:00,
2013-02-19 07:22:00,22.0,7.0,30.11,WSW,242,0.0,4.0,51,-99.99,,,-99.99,,2013-02-19 12:22:00,
2013-02-19 07:32:00,22.0,6.0,30.11,SW,225,0.0,3.0,50,-99.99,,,-99.99,,2013-02-19 12:32:00,
2013-02-19 07:42:00,22.0,6.0,30.11,SW,225,0.0,3.0,50,-99.99,,,-99.99,,2013-02-19 12:42:00,
2013-02-19 07:52:00,23.0,7.0,30.10,SW,225,0.0,0.0,49,-99.99,,,-99.99,,2013-02-19 12:52:00,
2013-02-19 08:02:00,23.0,7.0,30.10,SW,225,0.0,0.0,49,-99.99,,,-99.99,,2013-02-19 13:02:00,
2013-02-19 08:11:00,23.0,7.0,30.10,SW,225,0.0,0.0,49,-99.99,,,-99.99,,2013-02-19 13:11:00,
2013-02-19 08:22:00,24.0,8.0,30.10,SW,225,0.0,2.0,49,-99.99,,,-99.99,,2013-02-19 13:22:00,
2013-02-19 08:32:00,25.0,8.0,30.09,SW,226,0.0,2.0,48,-99.99,,,-99.99,,2013-02-19 13:32:00,
2013-02-19 08:42:00,25.0,8.0,30.09,SW,226,0.0,2.0,48,-99.99,,,-99.99,,2013-02-19 13:42:00,
2013-02-19 08:52:00,26.0,8.0,30.09,SW,225,0.0,0.0,45,-99.99,,,-99.99,,2013-02-19 13:52:00,
2013-02-19 09:01:00,27.0,9.0,30.09,SW,225,0.0,2.0,45,-99.99,,,-99.99,,2013-02-19 14:01:00,
2013-02-19 09:12:00,27.0,9.0,30.09,SW,225,0.0,2.0,45,-99.99,,,-99.99,,2013-02-19 14:12:00,
2013-02-19 09:22:00,29.0,8.0,30.09,SW,226,0.0,2.0,41,-99.99,,,-99.99,,2013-02-19 14:22:00,
2013-02-19 09:33:00,29.0,8.0,30.09,SW,226,0.0,2.0,41,-99.99,,,-99.99,,2013-02-19 14:33:00,
2013-02-19 09:42:00,29.0,8.0,30.09,SW,226,0.0,2.0,41,-99.99,,,-99.99,,2013-02-19 14:42:00,
2013-02-19 09:52:00,32.0,10.0,30.08,SSW,198,0.0,2.0,39,-99.99,,,-99.99,,2013-02-19 14:52:00,
2013-02-19 10:02:00,33.0,11.0,30.08,SSW,198,0.0,3.0,40,-99.99,,,-99.99,,2013-02-19 15:02:00,
2013-02-19 10:11:00,33.0,11.0,30.08,SSW,198,0.0,3.0,40,-99.99,,,-99.99,,2013-02-19 15:11:00,
2013-02-19 10:21:00,33.0,11.0,30.08,SSW,192,4.0,8.0,40,-99.99,,,-99.99,,2013-02-19 15:21:00,
2013-02-19 10:32:00,34.0,13.0,30.07,South,191,1.0,4.0,41,-99.99,,,-99.99,,2013-02-19 15:32:00,
2013-02-19 10:42:00,34.0,13.0,30.07,South,191,1.0,4.0,41,-99.99,,,-99.99,,2013-02-19 15:42:00,
2013-02-19 10:52:00,37.0,14.0,30.06,SSE,150,0.0,2.0,38,-99.99,,,-99.99,,2013-02-19 15:52:00,
2013-02-19 11:02:00,37.0,14.0,30.06,SSE,150,0.0,2.0,38,-99.99,,,-99.99,,2013-02-19 16:02:00,
2013-02-19 11:11:00,37.0,14.0,30.06,SSE,150,0.0,2.0,38,-99.99,,,-99.99,,2013-02-19 16:11:00,
2013-02-19 11:22:00,38.0,15.0,30.05,South,182,1.0,5.0,39,-99.99,,,-99.99,,2013-02-19 16:22:00,
2013-02-19 11:32:00,39.0,17.0,30.04,SE,138,4.0,9.0,40,-99.99,,,-99.99,,2013-02-19 16:32:00,
2013-02-19 11:42:00,39.0,17.0,30.04,SE,138,4.0,9.0,40,-99.99,,,-99.99,,2013-02-19 16:42:00,
2013-02-19 11:52:00,39.0,18.0,30.03,SSE,157,3.0,12.0,43,-99.99,,,-99.99,,2013-02-19 16:52:00,
2013-02-19 12:01:00,39.0,18.0,30.03,SSE,163,4.0,9.0,43,-99.99,,,-99.99,,2013-02-19 17:01:00,
2013-02-19 12:11:00,39.0,18.0,30.03,SSE,163,4.0,9.0,43,-99.99,,,-99.99,,2013-02-19 17:11:00,
2013-02-19 12:21:00,40.0,20.0,30.02,SSE,161,4.0,9.0,44,-99.99,,,-99.99,,2013-02-19 17:21:00,
2013-02-19 12:32:00,40.0,20.0,30.02,SSE,161,4.0,9.0,44,-99.99,,,-99.99,,2013-02-19 17:32:00,
2013-02-19 12:42:00,40.0,20.0,29.99,ESE,109,4.0,10.0,44,-99.99,,,-99.99,,2013-02-19 17:42:00,
2013-02-19 12:52:00,40.0,20.0,29.99,ESE,109,4.0,10.0,44,-99.99,,,-99.99,,2013-02-19 17:52:00,
2013-02-19 13:02:00,40.0,20.0,29.99,SE,128,2.0,6.0,45,-99.99,,,-99.99,,2013-02-19 18:02:00,
2013-02-19 13:11:00,40.0,20.0,29.99,SE,128,2.0,6.0,45,-99.99,,,-99.99,,2013-02-19 18:11:00,
2013-02-19 13:21:00,40.0,22.0,29.98,SE,142,4.0,10.0,48,-99.99,,,-99.99,,2013-02-19 18:21:00,
2013-02-19 13:32:00,39.0,21.0,29.98,SE,144,3.0,10.0,48,-99.99,,,-99.99,,2013-02-19 18:32:00,
2013-02-19 13:42:00,40.0,23.0,29.96,SE,145,3.0,9.0,51,-99.99,,,-99.99,,2013-02-19 18:42:00,
2013-02-19 13:52:00,40.0,23.0,29.96,SE,145,3.0,9.0,51,-99.99,,,-99.99,,2013-02-19 18:52:00,
2013-02-19 14:01:00,41.0,25.0,29.95,SE,134,2.0,5.0,53,-99.99,,,-99.99,,2013-02-19 19:01:00,
2013-02-19 14:11:00,41.0,25.0,29.95,SE,134,2.0,5.0,53,-99.99,,,-99.99,,2013-02-19 19:11:00,
2013-02-19 14:21:00,40.0,28.0,29.95,SSE,162,5.0,10.0,63,-99.99,,,-99.99,,2013-02-19 19:21:00,
2013-02-19 14:32:00,40.0,28.0,29.95,SSE,162,5.0,10.0,63,-99.99,,,-99.99,,2013-02-19 19:32:00,
2013-02-19 14:42:00,40.0,28.0,29.95,SSE,162,5.0,10.0,63,-99.99,,,-99.99,,2013-02-19 19:42:00,
2013-02-19 14:52:00,39.0,30.0,29.92,ESE,118,1.0,10.0,71,-99.99,,,-99.99,,2013-02-19 19:52:00,
2013-02-19 15:01:00,39.0,31.0,29.92,East,98,3.0,7.0,72,-99.99,,,-99.99,,2013-02-19 20:01:00,
2013-02-19 15:12:00,39.0,31.0,29.92,East,98,3.0,7.0,72,-99.99,,,-99.99,,2013-02-19 20:12:00,
2013-02-19 15:22:00,39.0,32.0,29.91,ESE,110,0.0,4.0,76,-99.99,,,-99.99,,2013-02-19 20:22:00,
2013-02-19 15:32:00,39.0,31.0,29.89,ESE,103,0.0,5.0,73,-99.99,,,-99.99,,2013-02-19 20:32:00,
2013-02-19 15:42:00,39.0,31.0,29.89,ESE,103,0.0,5.0,73,-99.99,,,-99.99,,2013-02-19 20:42:00,
2013-02-19 15:52:00,40.0,32.0,29.88,ESE,105,0.0,3.0,74,-99.99,,,-99.99,,2013-02-19 20:52:00,
2013-02-19 16:02:00,40.0,33.0,29.87,ESE,105,0.0,2.0,75,-99.99,,,-99.99,,2013-02-19 21:02:00,
2013-02-19 16:11:00,40.0,33.0,29.87,ESE,105,0.0,2.0,75,-99.99,,,-99.99,,2013-02-19 21:11:00,
2013-02-19 16:21:00,40.0,34.0,29.85,East,84,0.0,4.0,79,-99.99,,,-99.99,,2013-02-19 21:21:00,
2013-02-19 16:32:00,40.0,34.0,29.84,ESE,105,2.0,5.0,79,-99.99,,,-99.99,,2013-02-19 21:32:00,
2013-02-19 16:42:00,40.0,34.0,29.84,ESE,105,2.0,5.0,79,-99.99,,,-99.99,,2013-02-19 21:42:00,
2013-02-19 16:52:00,41.0,34.0,29.83,SSE,148,5.0,10.0,77,-99.99,,,-99.99,,2013-02-19 21:52:00,
2013-02-19 17:02:00,41.0,34.0,29.83,SSE,148,5.0,10.0,77,-99.99,,,-99.99,,2013-02-19 22:02:00,
2013-02-19 17:11:00,41.0,34.0,29.83,SSE,148,5.0,10.0,77,-99.99,,,-99.99,,2013-02-19 22:11:00,
2013-02-19 17:21:00,42.0,34.0,29.82,SE,138,6.0,12.0,72,-99.99,,,-99.99,,2013-02-19 22:21:00,
2013-02-19 17:32:00,42.0,35.0,29.82,SE,142,8.0,13.0,76,-99.99,,,-99.99,,2013-02-19 22:32:00,
2013-02-19 17:42:00,42.0,35.0,29.82,SE,142,8.0,13.0,76,-99.99,,,-99.99,,2013-02-19 22:42:00,
2013-02-19 17:52:00,41.0,36.0,29.81,SE,137,7.0,12.0,81,-99.99,,,-99.99,,2013-02-19 22:52:00,
2013-02-19 18:01:00,41.0,36.0,29.81,SE,137,7.0,12.0,81,-99.99,,,-99.99,,2013-02-19 23:01:00,
2013-02-19 18:11:00,41.0,36.0,29.81,SE,137,7.0,12.0,81,-99.99,,,-99.99,,2013-02-19 23:11:00,
2013-02-19 18:21:00,41.0,36.0,29.81,SE,137,7.0,12.0,81,-99.99,,,-99.99,,2013-02-19 23:21:00,
2013-02-19 18:32:00,40.0,36.0,29.79,SE,136,5.0,7.0,86,-99.99,,,-99.99,,2013-02-19 23:32:00,
2013-02-19 18:42:00,40.0,36.0,29.79,SE,136,5.0,7.0,86,-99.99,,,-99.99,,2013-02-19 23:42:00,
2013-02-19 18:52:00,40.0,36.0,29.78,SE,132,3.0,7.0,87,-99.99,,,-99.99,,2013-02-19 23:52:00,
2013-02-19 19:01:00,40.0,37.0,29.77,SE,132,0.0,4.0,88,-99.99,,,-99.99,,2013-02-20 00:01:00,
2013-02-19 19:11:00,40.0,37.0,29.77,SE,132,0.0,4.0,88,-99.99,,,-99.99,,2013-02-20 00:11:00,
2013-02-19 19:21:00,39.0,36.0,29.75,ESE,113,0.0,3.0,89,-99.99,,,-99.99,,2013-02-20 00:21:00,
2013-02-19 19:32:00,39.0,36.0,29.75,SE,125,1.0,5.0,90,-99.99,,,-99.99,,2013-02-20 00:32:00,
2013-02-19 19:42:00,39.0,36.0,29.75,SE,125,1.0,5.0,90,-99.99,,,-99.99,,2013-02-20 00:42:00,
2013-02-19 19:52:00,39.0,36.0,29.75,SE,125,1.0,5.0,90,-99.99,,,-99.99,,2013-02-20 00:52:00,
2013-02-19 20:02:00,39.0,36.0,29.75,SE,125,1.0,5.0,90,-99.99,,,-99.99,,2013-02-20 01:02:00,
2013-02-19 20:11:00,39.0,36.0,29.75,SE,125,1.0,5.0,90,-99.99,,,-99.99,,2013-02-20 01:11:00,
2013-02-19 20:22:00,39.0,37.0,29.71,SE,138,5.0,11.0,93,-99.99,,,-99.99,,2013-02-20 01:22:00,
2013-02-19 20:32:00,40.0,38.0,29.70,ESE,110,3.0,11.0,93,-99.99,,,-99.99,,2013-02-20 01:32:00,
2013-02-19 20:42:00,40.0,38.0,29.70,ESE,110,3.0,11.0,93,-99.99,,,-99.99,,2013-02-20 01:42:00,
2013-02-19 20:52:00,40.0,38.0,29.67,SE,130,4.0,13.0,94,-99.99,,,-99.99,,2013-02-20 01:52:00,
2013-02-19 21:02:00,40.0,38.0,29.67,SE,130,4.0,13.0,94,-99.99,,,-99.99,,2013-02-20 02:02:00,
2013-02-19 21:11:00,40.0,38.0,29.67,SE,130,4.0,13.0,94,-99.99,,,-99.99,,2013-02-20 02:11:00,
2013-02-19 21:21:00,40.0,38.0,29.64,SE,142,8.0,12.0,94,-99.99,,,-99.99,,2013-02-20 02:21:00,
2013-02-19 21:32:00,40.0,38.0,29.63,SE,146,6.0,12.0,94,-99.99,,,-99.99,,2013-02-20 02:32:00,
2013-02-19 21:42:00,40.0,38.0,29.63,SE,146,6.0,12.0,94,-99.99,,,-99.99,,2013-02-20 02:42:00,
2013-02-19 21:52:00,41.0,40.0,29.60,SE,140,3.0,8.0,95,-99.99,,,-99.99,,2013-02-20 02:52:00,
2013-02-19 22:02:00,41.0,40.0,29.59,ESE,103,3.0,5.0,95,-99.99,,,-99.99,,2013-02-20 03:02:00,
2013-02-19 22:12:00,41.0,40.0,29.59,ESE,103,3.0,5.0,95,-99.99,,,-99.99,,2013-02-20 03:12:00,
2013-02-19 22:22:00,41.0,40.0,29.61,SE,132,3.0,5.0,95,-99.99,,,-99.99,,2013-02-20 03:22:00,
2013-02-19 22:32:00,41.0,40.0,29.61,West,273,0.0,5.0,95,-99.99,,,-99.99,,2013-02-20 03:32:00,
2013-02-19 22:42:00,41.0,40.0,29.61,West,273,0.0,5.0,95,-99.99,,,-99.99,,2013-02-20 03:42:00,
2013-02-19 22:52:00,40.0,39.0,29.60,West,281,0.0,1.0,95,-99.99,,,-99.99,,2013-02-20 03:52:00,
2013-02-19 23:01:00,40.0,39.0,29.61,WNW,282,0.0,0.0,95,-99.99,,,-99.99,,2013-02-20 04:01:00,
2013-02-19 23:11:00,40.0,39.0,29.61,WNW,282,0.0,0.0,95,-99.99,,,-99.99,,2013-02-20 04:11:00,
2013-02-19 23:21:00,40.0,39.0,29.59,WNW,282,0.0,0.0,95,-99.99,,,-99.99,,2013-02-20 04:21:00,
2013-02-19 23:31:00,40.0,39.0,29.57,West,281,0.0,0.0,95,-99.99,,,-99.99,,2013-02-20 04:31:00,
2013-02-19 23:42:00,40.0,39.0,29.57,West,281,0.0,0.0,95,-99.99,,,-99.99,,2013-02-20 04:42:00,
2013-02-19 23:52:00,39.0,38.0,29.55,WNW,282,0.0,0.0,95,-99.99,,,-99.99,,2013-02-20 04:52:00,